createdAt,value
2022-12-27T00:02:24.996Z,2.20
2022-12-27T00:04:57.523Z,2.21
2022-12-27T00:07:30.402Z,2.23
2022-12-27T00:10:03.622Z,2.26
2022-12-27T00:12:36.133Z,2.29
2022-12-27T00:15:09.801Z,2.31
2022-12-27T00:17:42.859Z,2.31
2022-12-27T00:20:15.288Z,2.29
2022-12-27T00:22:47.955Z,2.33
2022-12-27T00:25:20.769Z,2.36
2022-12-27T00:27:53.232Z,2.40
2022-12-27T00:30:25.884Z,2.43
2022-12-27T00:32:58.449Z,2.48
2022-12-27T00:35:30.880Z,2.50
2022-12-27T00:38:03.838Z,2.49
2022-12-27T00:40:38.242Z,2.51
2022-12-27T00:43:10.820Z,2.51
2022-12-27T00:45:43.427Z,2.53
2022-12-27T00:48:16.175Z,2.53
2022-12-27T00:50:49.301Z,2.57
2022-12-27T00:53:22.206Z,2.60
2022-12-27T00:55:55.652Z,2.60
2022-12-27T00:58:28.820Z,2.63
2022-12-27T01:01:15.025Z,2.63
2022-12-27T01:03:47.721Z,2.61
2022-12-27T01:06:22.795Z,2.63
2022-12-27T01:08:55.322Z,2.65
2022-12-27T01:11:28.777Z,2.66
2022-12-27T01:14:03.668Z,2.66
2022-12-27T01:16:37.966Z,2.66
2022-12-27T01:19:10.742Z,2.65
2022-12-27T01:21:43.352Z,2.62
2022-12-27T01:24:15.770Z,2.60
2022-12-27T01:26:48.142Z,2.60
2022-12-27T01:29:20.574Z,2.62
2022-12-27T01:31:53.241Z,2.63
2022-12-27T01:34:25.678Z,2.60
2022-12-27T01:36:59.123Z,2.62
2022-12-27T01:39:32.164Z,2.63
2022-12-27T01:42:22.850Z,2.63
2022-12-27T01:44:58.088Z,2.64
2022-12-27T01:47:52.929Z,2.65
2022-12-27T01:50:48.474Z,2.64
2022-12-27T01:53:33.730Z,2.65
2022-12-27T01:56:19.874Z,2.66
2022-12-27T01:58:59.925Z,2.68
2022-12-27T02:01:39.725Z,2.71
2022-12-27T02:04:23.176Z,2.75
2022-12-27T02:06:56.277Z,2.75
2022-12-27T02:09:42.618Z,2.78
2022-12-27T02:12:15.081Z,2.80
2022-12-27T02:14:49.443Z,2.81
2022-12-27T02:17:27.471Z,2.79
2022-12-27T02:20:19.093Z,2.83
2022-12-27T02:23:49.175Z,2.89
2022-12-27T02:26:32.316Z,2.90
2022-12-27T02:29:28.871Z,2.94
2022-12-27T02:32:08.317Z,2.97
2022-12-27T02:34:51.790Z,2.96
2022-12-27T02:37:26.112Z,2.95
2022-12-27T02:40:01.266Z,2.98
2022-12-27T02:42:51.586Z,3.01
2022-12-27T02:45:41.691Z,3.02
2022-12-27T02:48:32.838Z,3.07
2022-12-27T02:51:30.901Z,3.10
2022-12-27T02:54:29.499Z,3.13
2022-12-27T02:57:18.263Z,3.16
2022-12-27T03:00:25.631Z,3.16
2022-12-27T03:03:38.348Z,3.13
2022-12-27T03:06:50.536Z,3.16
2022-12-27T03:10:04.071Z,3.16
2022-12-27T03:13:09.568Z,3.16
2022-12-27T03:16:27.008Z,3.17
2022-12-27T03:19:04.385Z,3.18
2022-12-27T03:22:05.624Z,3.22
2022-12-27T03:24:57.295Z,3.24
2022-12-27T03:27:34.586Z,3.27
2022-12-27T03:30:27.932Z,3.29
2022-12-27T03:33:15.953Z,3.33
2022-12-27T03:36:25.796Z,3.35
2022-12-27T03:39:19.917Z,3.36
2022-12-27T03:42:26.858Z,3.39
2022-12-27T03:44:59.851Z,3.41
2022-12-27T03:47:50.509Z,3.41
2022-12-27T03:50:29.318Z,3.38
2022-12-27T03:53:11.596Z,3.39
2022-12-27T03:55:44.334Z,3.39
2022-12-27T03:58:16.893Z,3.43
2022-12-27T04:00:50.351Z,3.40
2022-12-27T04:03:22.832Z,3.37
2022-12-27T04:05:56.373Z,3.34
2022-12-27T04:08:46.798Z,3.35
2022-12-27T04:11:37.299Z,3.34
2022-12-27T04:14:27.520Z,3.34
2022-12-27T04:17:18.243Z,3.38
2022-12-27T04:20:08.631Z,3.40
2022-12-27T04:22:59.649Z,3.39
2022-12-27T04:25:49.790Z,3.39
2022-12-27T04:28:41.114Z,3.40
2022-12-27T04:31:31.658Z,3.41
2022-12-27T04:34:22.559Z,3.42
2022-12-27T04:36:54.977Z,3.46
2022-12-27T04:39:27.317Z,3.47
2022-12-27T04:42:17.923Z,3.51
2022-12-27T04:45:14.866Z,3.55
2022-12-27T04:48:00.748Z,3.54
2022-12-27T04:50:51.960Z,3.53
2022-12-27T04:53:42.039Z,3.54
2022-12-27T04:56:14.303Z,3.57
2022-12-27T04:59:04.690Z,3.60
2022-12-27T05:01:55.552Z,3.63
2022-12-27T05:04:28.388Z,3.66
2022-12-27T05:07:02.561Z,3.71
2022-12-27T05:09:52.709Z,3.76
2022-12-27T05:12:43.068Z,3.79
2022-12-27T05:15:16.241Z,3.80
2022-12-27T05:17:48.531Z,3.83
2022-12-27T05:20:20.956Z,3.87
2022-12-27T05:23:11.073Z,3.90
2022-12-27T05:25:44.627Z,3.93
2022-12-27T05:28:17.672Z,3.96
2022-12-27T05:30:50.087Z,4.01
2022-12-27T05:33:22.461Z,4.04
2022-12-27T05:35:54.998Z,4.09
2022-12-27T05:38:27.563Z,4.13
2022-12-27T05:41:03.975Z,4.18
2022-12-27T05:43:36.533Z,4.22
2022-12-27T05:46:18.120Z,4.27
2022-12-27T05:48:51.103Z,4.29
2022-12-27T05:51:23.728Z,4.27
2022-12-27T05:53:56.208Z,4.27
2022-12-27T05:56:29.111Z,4.29
2022-12-27T05:59:01.847Z,4.34
2022-12-27T06:01:36.042Z,4.35
2022-12-27T06:04:08.530Z,4.35
2022-12-27T06:06:40.962Z,4.36
2022-12-27T06:09:13.555Z,4.35
2022-12-27T06:11:46.016Z,4.38
2022-12-27T06:14:18.295Z,4.41
2022-12-27T06:16:51.124Z,4.47
2022-12-27T06:19:23.705Z,4.47
2022-12-27T06:21:56.156Z,4.51
2022-12-27T06:24:28.654Z,4.57
2022-12-27T06:27:01.089Z,4.60
2022-12-27T06:29:34.469Z,4.62
2022-12-27T06:32:07.420Z,4.62
2022-12-27T06:34:39.755Z,4.64
2022-12-27T06:37:12.566Z,4.65
2022-12-27T06:39:45.189Z,4.64
2022-12-27T06:42:17.941Z,4.66
2022-12-27T06:44:51.211Z,4.66
2022-12-27T06:47:23.639Z,4.69
2022-12-27T06:49:56.236Z,4.70
2022-12-27T06:52:28.988Z,4.75
2022-12-27T06:55:01.549Z,4.78
2022-12-27T06:57:34.204Z,4.79
2022-12-27T07:00:08.886Z,4.77
2022-12-27T07:02:42.200Z,4.75
2022-12-27T07:05:15.020Z,4.74
2022-12-27T07:07:48.086Z,4.69
2022-12-27T07:10:20.543Z,4.70
2022-12-27T07:12:52.980Z,4.70
2022-12-27T07:15:25.720Z,4.73
2022-12-27T07:17:58.226Z,4.79
2022-12-27T07:20:30.877Z,4.79
2022-12-27T07:23:03.350Z,4.80
2022-12-27T07:25:36.024Z,4.83
2022-12-27T07:28:08.544Z,4.85
2022-12-27T07:30:44.147Z,4.88
2022-12-27T07:33:16.934Z,4.88
2022-12-27T07:35:49.253Z,4.86
2022-12-27T07:38:22.240Z,4.88
2022-12-27T07:40:55.091Z,4.92
2022-12-27T07:43:29.946Z,4.96
2022-12-27T07:46:12.328Z,4.99
2022-12-27T07:48:44.801Z,5.05
2022-12-27T07:51:18.192Z,5.12
2022-12-27T07:53:50.925Z,5.14
2022-12-27T07:56:27.005Z,5.15
2022-12-27T07:59:01.012Z,5.22
2022-12-27T08:01:54.707Z,5.29
2022-12-27T08:04:27.532Z,5.32
2022-12-27T08:07:18.784Z,5.34
2022-12-27T08:09:51.413Z,5.35
2022-12-27T08:12:25.816Z,5.35
2022-12-27T08:14:58.337Z,5.41
2022-12-27T08:17:31.087Z,5.48
2022-12-27T08:20:04.028Z,5.54
2022-12-27T08:22:37.002Z,5.57
2022-12-27T08:25:11.286Z,5.60
2022-12-27T08:27:43.712Z,5.64
2022-12-27T08:30:16.652Z,5.62
2022-12-27T08:32:51.168Z,5.61
2022-12-27T08:35:52.105Z,5.61
2022-12-27T08:38:04.130Z,5.61
2022-12-27T08:40:42.301Z,5.66
2022-12-27T08:43:15.572Z,5.66
2022-12-27T08:45:48.276Z,5.68
2022-12-27T08:48:20.955Z,5.72
2022-12-27T08:50:53.451Z,5.75
2022-12-27T08:53:26.761Z,5.78
2022-12-27T08:55:59.307Z,5.82
2022-12-27T08:58:32.259Z,5.84
2022-12-27T09:01:11.225Z,5.86
2022-12-27T09:03:43.953Z,5.90
2022-12-27T09:06:21.492Z,5.93
2022-12-27T09:08:54.820Z,6.01
2022-12-27T09:11:33.470Z,6.04
2022-12-27T09:14:06.566Z,6.07
2022-12-27T09:16:40.987Z,6.11
2022-12-27T09:19:13.432Z,6.15
2022-12-27T09:21:46.274Z,6.25
2022-12-27T09:24:18.746Z,6.35
2022-12-27T09:26:51.341Z,6.46
2022-12-27T09:29:23.688Z,6.52
2022-12-27T09:31:56.130Z,6.59
2022-12-27T09:34:28.451Z,6.62
2022-12-27T09:37:02.339Z,6.65
2022-12-27T09:39:34.778Z,6.67
2022-12-27T09:45:20.451Z,6.73
2022-12-27T09:48:02.723Z,6.74
2022-12-27T09:50:56.716Z,6.75
2022-12-27T09:53:53.442Z,6.74
2022-12-27T09:56:54.525Z,6.73
2022-12-27T09:59:19.201Z,6.74
2022-12-27T10:01:51.819Z,6.73
2022-12-27T10:04:39.312Z,6.79
2022-12-27T10:07:13.924Z,6.83
2022-12-27T10:09:57.372Z,6.81
2022-12-27T10:13:00.343Z,6.83
2022-12-27T10:15:55.936Z,6.84
2022-12-27T10:19:23.034Z,6.84
2022-12-27T10:22:00.514Z,6.87
2022-12-27T10:24:58.267Z,6.91
2022-12-27T13:37:48.728Z,7.50
2022-12-27T13:40:37.440Z,7.48
2022-12-27T13:43:51.255Z,7.47
2022-12-27T13:46:52.434Z,7.44
2022-12-27T13:49:52.427Z,7.45
2022-12-27T13:53:04.459Z,7.44
2022-12-27T13:55:50.899Z,7.42
2022-12-27T13:58:40.174Z,7.38
2022-12-27T14:01:53.735Z,7.39
2022-12-27T14:04:59.522Z,7.38
2022-12-27T14:08:21.771Z,7.47
2022-12-27T14:11:00.886Z,7.41
2022-12-27T14:17:42.970Z,7.49
2022-12-27T14:20:35.103Z,7.42
2022-12-27T14:23:36.575Z,7.43
2022-12-27T14:26:42.212Z,7.40
2022-12-27T14:29:48.462Z,7.41
2022-12-27T14:32:48.065Z,7.44
2022-12-27T14:35:28.308Z,7.48
2022-12-27T14:38:27.727Z,7.53
2022-12-27T14:41:41.465Z,7.54
2022-12-27T14:44:30.938Z,7.56
2022-12-27T14:47:37.182Z,7.56
2022-12-27T14:50:44.733Z,7.56
2022-12-27T14:53:37.236Z,7.53
2022-12-27T14:56:33.632Z,7.50
2022-12-27T14:59:25.638Z,7.51
2022-12-27T15:02:45.668Z,7.48
2022-12-27T15:06:02.390Z,7.45
2022-12-27T15:08:54.996Z,7.40
2022-12-27T15:11:46.869Z,7.37
2022-12-27T15:14:48.089Z,7.38
2022-12-27T15:17:49.828Z,7.39
2022-12-27T15:20:38.738Z,7.41
2022-12-27T15:23:30.943Z,7.36
2022-12-27T15:26:44.694Z,7.30
2022-12-27T15:30:06.432Z,7.26
2022-12-27T15:33:03.040Z,7.25
2022-12-27T15:35:58.661Z,7.23
2022-12-27T15:38:54.112Z,7.13
2022-12-27T15:41:37.910Z,7.03
2022-12-27T15:44:38.882Z,6.98
2022-12-27T15:47:35.846Z,6.95
2022-12-27T15:50:30.433Z,6.88
2022-12-27T15:53:32.080Z,6.90
2022-12-27T15:56:38.506Z,6.87
2022-12-27T15:59:36.972Z,6.79
2022-12-27T16:02:34.119Z,6.72
2022-12-27T16:05:26.947Z,6.59
2022-12-27T16:08:07.283Z,6.41
2022-12-27T16:10:48.035Z,6.28
2022-12-27T16:13:39.345Z,6.20
2022-12-27T16:16:10.766Z,6.16
2022-12-27T16:19:02.763Z,6.11
2022-12-27T16:21:42.512Z,6.04
2022-12-27T16:24:35.926Z,5.96
2022-12-27T16:27:08.418Z,5.83
2022-12-27T16:29:44.687Z,5.70
2022-12-27T16:32:21.487Z,5.63
2022-12-27T16:34:59.488Z,5.60
2022-12-27T16:37:45.189Z,5.54
2022-12-27T16:40:41.505Z,5.51
2022-12-27T16:43:21.724Z,5.45
2022-12-27T16:46:02.099Z,5.44
2022-12-27T16:49:05.845Z,5.39
2022-12-27T16:51:49.278Z,5.32
2022-12-27T16:54:58.317Z,5.26
2022-12-27T16:57:43.493Z,5.21
2022-12-27T17:00:46.143Z,5.24
2022-12-27T17:03:41.971Z,5.25
2022-12-27T17:06:32.018Z,5.25
2022-12-27T17:09:16.797Z,5.22
2022-12-27T17:11:57.041Z,5.21
2022-12-27T17:14:35.928Z,5.17
2022-12-27T17:17:23.218Z,5.14
2022-12-27T17:20:01.969Z,5.08
2022-12-27T17:22:36.145Z,5.04
2022-12-27T17:25:08.946Z,4.96
2022-12-27T17:27:49.609Z,4.94
2022-12-27T17:30:45.884Z,4.95
2022-12-27T17:33:58.527Z,4.92
2022-12-27T17:37:04.056Z,5.01
2022-12-27T17:39:55.724Z,5.00
2022-12-27T17:43:17.931Z,4.95
2022-12-27T17:46:31.512Z,4.93
2022-12-27T17:49:04.918Z,4.88
2022-12-27T17:54:43.900Z,4.85
2022-12-27T17:57:55.821Z,4.84
2022-12-27T18:00:32.725Z,4.81
2022-12-27T18:03:10.050Z,4.82
2022-12-27T18:05:43.750Z,4.80
2022-12-27T18:08:29.671Z,4.76
2022-12-27T18:11:04.770Z,4.74
2022-12-27T18:13:39.377Z,4.71
2022-12-27T18:16:23.247Z,4.69
2022-12-27T18:18:57.792Z,4.68
2022-12-27T18:21:32.725Z,4.67
2022-12-27T18:24:08.128Z,4.67
2022-12-27T18:26:42.317Z,4.68
2022-12-27T18:29:14.818Z,4.71
2022-12-27T18:31:50.109Z,4.70
2022-12-27T18:34:36.202Z,4.66
2022-12-27T18:37:14.435Z,4.64
2022-12-27T18:40:00.575Z,4.56
2022-12-27T18:42:40.512Z,4.42
2022-12-27T18:45:30.927Z,4.31
2022-12-27T18:48:04.732Z,4.40
2022-12-27T18:50:38.260Z,4.49
2022-12-27T18:53:38.112Z,4.53
2022-12-27T18:56:26.628Z,4.55
2022-12-27T18:59:28.022Z,4.58
2022-12-27T19:02:03.201Z,4.58
2022-12-27T19:04:35.745Z,4.56
2022-12-27T19:07:12.659Z,4.56
2022-12-27T19:09:54.354Z,4.51
2022-12-27T19:12:37.233Z,4.50
2022-12-27T19:15:19.016Z,4.50
2022-12-27T19:17:54.662Z,4.47
2022-12-27T19:20:36.030Z,4.46
2022-12-27T19:23:20.677Z,4.46
2022-12-27T19:26:07.258Z,4.40
2022-12-27T19:28:39.672Z,4.38
2022-12-27T19:31:21.221Z,4.36
2022-12-27T19:33:58.589Z,4.37
2022-12-27T19:36:35.178Z,4.38
2022-12-27T19:39:23.869Z,4.39
2022-12-27T19:42:01.060Z,4.37
2022-12-27T19:44:32.000Z,4.34
2022-12-27T19:47:04.366Z,4.29
2022-12-27T19:49:41.986Z,4.33
2022-12-27T19:52:21.772Z,4.34
2022-12-27T19:55:04.598Z,4.29
2022-12-27T19:57:38.764Z,4.27
2022-12-27T20:00:18.907Z,4.25
2022-12-27T20:02:51.551Z,4.28
2022-12-27T20:06:12.866Z,4.27
2022-12-27T20:07:58.196Z,4.25
2022-12-27T20:10:30.993Z,4.23
2022-12-27T20:13:03.507Z,4.20
2022-12-27T20:15:36.166Z,4.22
2022-12-27T20:18:08.645Z,4.24
2022-12-27T20:20:41.300Z,4.22
2022-12-27T20:23:13.974Z,4.20
2022-12-27T20:25:49.011Z,4.20
2022-12-27T20:28:22.025Z,4.22
2022-12-27T20:30:54.574Z,4.23
2022-12-27T20:33:27.039Z,4.24
2022-12-27T20:35:59.937Z,4.23
2022-12-27T20:38:32.662Z,4.23
2022-12-27T20:41:14.244Z,4.22
2022-12-27T20:43:46.736Z,4.20
2022-12-27T20:46:19.718Z,4.17
2022-12-27T20:48:53.386Z,4.17
2022-12-27T20:51:28.094Z,4.17
2022-12-27T20:54:01.387Z,4.18
2022-12-27T20:56:35.473Z,4.17
2022-12-27T20:59:08.378Z,4.12
2022-12-27T21:01:40.977Z,4.13
2022-12-27T21:04:13.716Z,4.11
2022-12-27T21:06:47.618Z,4.13
2022-12-27T21:09:20.089Z,4.15
2022-12-27T21:11:53.945Z,4.18
2022-12-27T21:14:26.502Z,4.22
2022-12-27T21:16:59.687Z,4.20
2022-12-27T21:19:32.465Z,4.19
2022-12-27T21:22:04.963Z,4.17
2022-12-27T21:24:37.805Z,4.21
2022-12-27T21:27:10.618Z,4.19
2022-12-27T21:29:43.133Z,4.17
2022-12-27T21:32:16.023Z,4.14
2022-12-27T21:34:49.669Z,4.16
2022-12-27T21:37:22.764Z,4.15
2022-12-27T21:39:55.645Z,4.16
2022-12-27T21:42:28.130Z,4.15
2022-12-27T21:45:00.724Z,4.10
2022-12-27T21:47:33.449Z,4.09
2022-12-27T21:50:06.608Z,4.11
2022-12-27T21:52:39.704Z,4.14
2022-12-27T21:55:13.651Z,4.14
2022-12-27T21:57:46.185Z,4.12
2022-12-27T22:00:18.934Z,4.15
2022-12-27T22:02:51.864Z,4.15
2022-12-27T22:05:24.333Z,4.14
2022-12-27T22:07:57.765Z,4.14
2022-12-27T22:10:30.183Z,4.15
2022-12-27T22:13:04.022Z,4.16
2022-12-27T22:15:36.559Z,4.14
2022-12-27T22:18:09.160Z,4.14
2022-12-27T22:20:46.749Z,4.17
2022-12-27T22:23:15.973Z,4.16
2022-12-27T22:25:48.580Z,4.16
2022-12-27T22:28:21.229Z,4.18
2022-12-27T22:30:53.832Z,4.19
2022-12-27T22:33:26.755Z,4.16
2022-12-27T22:36:08.348Z,4.19
2022-12-27T22:38:41.008Z,4.19
2022-12-27T22:41:19.719Z,4.19
2022-12-27T22:43:56.627Z,4.17
2022-12-27T22:46:51.014Z,4.15
2022-12-27T22:49:05.744Z,4.16
2022-12-27T22:51:39.303Z,4.11
2022-12-27T22:54:11.672Z,4.13
2022-12-27T22:56:44.239Z,4.12
2022-12-27T22:59:18.573Z,4.09
2022-12-27T23:01:51.091Z,4.09
2022-12-27T23:04:23.923Z,4.06
2022-12-27T23:06:56.570Z,4.03
2022-12-27T23:09:29.935Z,4.03
2022-12-27T23:12:02.692Z,4.06
2022-12-27T23:14:35.276Z,4.05
2022-12-27T23:17:07.948Z,4.06
2022-12-27T23:19:40.335Z,4.07
2022-12-27T23:22:12.656Z,4.09
2022-12-27T23:24:45.181Z,4.08
2022-12-27T23:27:17.485Z,4.07
2022-12-27T23:29:49.858Z,4.05
2022-12-27T23:32:22.250Z,4.05
2022-12-27T23:34:54.766Z,4.03
2022-12-27T23:37:27.165Z,4.00
2022-12-27T23:39:59.658Z,3.94
2022-12-27T23:42:31.942Z,3.90
2022-12-27T23:45:04.766Z,3.92
2022-12-27T23:47:37.491Z,3.91
2022-12-27T23:50:13.280Z,3.89
2022-12-27T23:52:45.803Z,3.86
2022-12-27T23:55:18.155Z,3.86
2022-12-27T23:57:51.837Z,3.86
